Polaris — JD2797 — position and weather

sailwx.info

Track history (hours):
 
Tides and Currents Weather Stations Pressure Air Temp Water Temp Dewpoint Dewpoint Depression Visibility Wind Speed Wind Dir Waves Ship Positions

Polaris

Last reported at 2017-Sep-18 22:41 UTC. Time now 2017-Sep-19 15:39 UTC.
Position N 35°27' E 139°40'.

Length 30 m; draft 2.6 m.

Type: Pilot. MMSI: 431000764.

Date/timePositionNaut miles runAvg speedWind from/ knotsBaromVisibWave heightAir tempDewpointWater temp
2017-Sep-18 22:41N 35°27' E 139°40'1 5.0
2017-Sep-18 22:31N 35°27' E 139°41'713.8
2017-Sep-18 22:01N 35°20' E 139°43'5 9.9
2017-Sep-18 21:30N 35°16' E 139°46'511.1
2017-Sep-18 21:00N 35°11' E 139°47'1 2.8
2017-Sep-18 20:30N 35°12' E 139°47'611.5
2017-Sep-18 20:00N 35°17' E 139°44'713.5
2017-Sep-18 19:31N 35°24' E 139°42'3 6.8
2017-Sep-18 19:01N 35°27' E 139°40'0 0.0
2017-Sep-18 18:30N 35°27' E 139°40'0 0.0
2017-Sep-18 18:01N 35°27' E 139°40'0 0.0
2017-Sep-17 23:57N 35°27' E 139°40'0 0.0
2017-Sep-17 23:31N 35°27' E 139°40'0 0.0
2017-Sep-17 23:00N 35°27' E 139°40'0 0.0
2017-Sep-17 22:30N 35°27' E 139°40'0 0.0
2017-Sep-17 22:00N 35°27' E 139°40'0 0.0
2017-Sep-17 21:31N 35°27' E 139°40'0 0.0
2017-Sep-17 21:00N 35°27' E 139°40'0 0.0
2017-Sep-17 20:31N 35°27' E 139°40'0 0.0
2017-Sep-17 20:01N 35°27' E 139°40'0 0.0
2017-Sep-17 19:31N 35°27' E 139°40'0 0.0
2017-Sep-17 19:01N 35°27' E 139°40'0 0.0
2017-Sep-17 18:30N 35°27' E 139°40'0 0.0
2017-Sep-17 18:01N 35°27' E 139°40'0 0.0
2017-Sep-17 17:31N 35°27' E 139°40'0 0.0
2017-Sep-17 17:00N 35°27' E 139°40'0 0.0
2017-Sep-17 16:30N 35°27' E 139°40'0 0.0
2017-Sep-17 16:01N 35°27' E 139°40'0 0.0
2017-Sep-17 15:31N 35°27' E 139°40'0 0.0
2017-Sep-17 15:00N 35°27' E 139°40'0 0.0
2017-Sep-17 14:30N 35°27' E 139°40'0 0.0
2017-Sep-17 14:01N 35°27' E 139°40'0 0.5
2017-Sep-17 13:31N 35°27' E 139°40'610.9
2017-Sep-17 13:00N 35°21' E 139°42'714.8
2017-Sep-17 12:30N 35°15' E 139°45'1 2.8
2017-Sep-17 12:00N 35°16' E 139°46'612.9
2017-Sep-17 11:30N 35°22' E 139°42'3 6.4
2017-Sep-17 11:00N 35°24' E 139°45'2 4.2
2017-Sep-17 10:30N 35°23' E 139°43'611.3
2017-Sep-17 10:01N 35°18' E 139°39'0 0.1
2017-Sep-17 05:36N 35°19' E 139°38'0 0.0
2017-Sep-17 05:19N 35°19' E 139°38'0 0.0
2017-Sep-17 04:54N 35°19' E 139°38'0 0.0
2017-Sep-17 04:27N 35°19' E 139°38'0 0.0
2017-Sep-17 04:00N 35°19' E 139°38'0 0.0
2017-Sep-17 03:31N 35°19' E 139°38'0 0.0
2017-Sep-17 02:59N 35°19' E 139°38'0 0.0
2017-Sep-17 02:29N 35°19' E 139°38'0 0.0
2017-Sep-17 02:00N 35°19' E 139°38'0 0.0
2017-Sep-17 01:26N 35°19' E 139°38'0 0.0
2017-Sep-17 01:00N 35°19' E 139°38'0 0.0
2017-Sep-16 23:35N 35°19' E 139°38'0 0.0
2017-Sep-16 23:28N 35°19' E 139°38'2 5.2
2017-Sep-16 23:00N 35°19' E 139°41'713.0
2017-Sep-16 22:30N 35°13' E 139°46'4 8.0
2017-Sep-16 22:00N 35°17' E 139°45'613.0
2017-Sep-16 21:30N 35°23' E 139°41'1 2.0
2017-Sep-16 21:01N 35°24' E 139°40'0 0.3
2017-Sep-16 20:31N 35°24' E 139°40'4 8.5
2017-Sep-16 20:00N 35°19' E 139°41'2 1.6
2017-Sep-16 18:38N 35°19' E 139°38'0 0.0
2017-Sep-16 16:55N 35°19' E 139°38'0 0.0
2017-Sep-16 16:27N 35°19' E 139°38'0 0.0
2017-Sep-16 15:59N 35°19' E 139°38'0 0.0
2017-Sep-16 15:28N 35°19' E 139°38'0 0.0
2017-Sep-16 12:33N 35°19' E 139°38'0 0.0
2017-Sep-16 12:13N 35°19' E 139°38'0 0.0
2017-Sep-16 11:59N 35°19' E 139°38'0 0.0
2017-Sep-16 11:14N 35°19' E 139°38'0 0.0
2017-Sep-16 10:58N 35°19' E 139°38'3 7.4
2017-Sep-16 10:30N 35°18' E 139°42'611.8
2017-Sep-16 10:00N 35°13' E 139°46'612.3
2017-Sep-16 09:30N 35°18' E 139°44'612.6
2017-Sep-16 09:01N 35°25' E 139°43'2 3.5
2017-Sep-16 08:31N 35°25' E 139°45'4 8.6
2017-Sep-16 08:01N 35°27' E 139°41'1 2.3
2017-Sep-16 07:30N 35°27' E 139°40'0 0.0
2017-Sep-16 07:00N 35°27' E 139°40'0 0.0
2017-Sep-16 06:30N 35°27' E 139°40'0 0.0
2017-Sep-16 06:00N 35°27' E 139°40'0 0.0
2017-Sep-16 05:31N 35°27' E 139°40'0 0.0
2017-Sep-16 05:00N 35°27' E 139°40'0 0.0
2017-Sep-14 03:47N 35°27' E 139°40'2 6.6
2017-Sep-14 03:30N 35°26' E 139°42'714.1
2017-Sep-14 03:00N 35°19' E 139°43'714.6
2017-Sep-14 02:30N 35°12' E 139°46'510.3
2017-Sep-14 02:00N 35°17' E 139°45'611.9
2017-Sep-14 01:31N 35°23' E 139°42'5 9.2
2017-Sep-14 01:00N 35°27' E 139°44'0 0.6
2017-Sep-14 00:31N 35°28' E 139°43'2 4.1
2017-Sep-14 00:00N 35°27' E 139°41'1 2.5
2017-Sep-13 23:31N 35°27' E 139°40'0 0.0
2017-Sep-13 23:01N 35°27' E 139°40'  
2017-Sep-11 00:11N 35°27' E 139°40'0 0.0
2017-Sep-11 00:00N 35°27' E 139°40'3 5.4
2017-Sep-10 23:31N 35°25' E 139°42'714.8
2017-Sep-10 23:00N 35°17' E 139°44'4 8.5
2017-Sep-10 22:30N 35°14' E 139°46'611.6
2017-Sep-10 22:00N 35°19' E 139°43'612.0
2017-Sep-10 21:31N 35°25' E 139°43'2 3.0
2017-Sep-10 21:00N 35°25' E 139°45'4 7.2
2017-Sep-10 20:30N 35°27' E 139°42'2 3.3
2017-Sep-10 20:00N 35°27' E 139°40'0 0.0
2017-Sep-10 19:30N 35°27' E 139°40'0 0.0
2017-Sep-09 02:39N 35°27' E 139°40'0 1.6
2017-Sep-09 02:31N 35°27' E 139°40'510.5
2017-Sep-09 02:00N 35°22' E 139°41'714.4
2017-Sep-09 01:30N 35°15' E 139°45'1 2.3
2017-Sep-09 01:00N 35°14' E 139°46'4 7.8
2017-Sep-09 00:30N 35°18' E 139°44'3 6.5
2017-Sep-09 00:00N 35°20' E 139°42'3 6.7
2017-Sep-08 23:31N 35°24' E 139°42'4 7.1
2017-Sep-08 23:00N 35°27' E 139°40'  
Track history (hours):
 
Tides and Currents Weather Stations Pressure Air Temp Water Temp Dewpoint Dewpoint Depression Visibility Wind Speed Wind Dir Waves Ship Positions

Polaris

Last reported at 2017-Sep-18 22:41 UTC. Time now 2017-Sep-19 15:39 UTC.
Position N 35°27' E 139°40'.

Length 30 m; draft 2.6 m.

Type: Pilot. MMSI: 431000764.

Date/timePositionNaut miles runAvg speedWind from/ knotsBaromVisibWave heightAir tempDewpointWater temp
2017-Sep-18 22:41N 35°27' E 139°40'1 5.0
2017-Sep-18 22:31N 35°27' E 139°41'713.8
2017-Sep-18 22:01N 35°20' E 139°43'5 9.9
2017-Sep-18 21:30N 35°16' E 139°46'511.1
2017-Sep-18 21:00N 35°11' E 139°47'1 2.8
2017-Sep-18 20:30N 35°12' E 139°47'611.5
2017-Sep-18 20:00N 35°17' E 139°44'713.5
2017-Sep-18 19:31N 35°24' E 139°42'3 6.8
2017-Sep-18 19:01N 35°27' E 139°40'0 0.0
2017-Sep-18 18:30N 35°27' E 139°40'0 0.0
2017-Sep-18 18:01N 35°27' E 139°40'0 0.0
2017-Sep-17 23:57N 35°27' E 139°40'0 0.0
2017-Sep-17 23:31N 35°27' E 139°40'0 0.0
2017-Sep-17 23:00N 35°27' E 139°40'0 0.0
2017-Sep-17 22:30N 35°27' E 139°40'0 0.0
2017-Sep-17 22:00N 35°27' E 139°40'0 0.0
2017-Sep-17 21:31N 35°27' E 139°40'0 0.0
2017-Sep-17 21:00N 35°27' E 139°40'0 0.0
2017-Sep-17 20:31N 35°27' E 139°40'0 0.0
2017-Sep-17 20:01N 35°27' E 139°40'0 0.0
2017-Sep-17 19:31N 35°27' E 139°40'0 0.0
2017-Sep-17 19:01N 35°27' E 139°40'0 0.0
2017-Sep-17 18:30N 35°27' E 139°40'0 0.0
2017-Sep-17 18:01N 35°27' E 139°40'0 0.0
2017-Sep-17 17:31N 35°27' E 139°40'0 0.0
2017-Sep-17 17:00N 35°27' E 139°40'0 0.0
2017-Sep-17 16:30N 35°27' E 139°40'0 0.0
2017-Sep-17 16:01N 35°27' E 139°40'0 0.0
2017-Sep-17 15:31N 35°27' E 139°40'0 0.0
2017-Sep-17 15:00N 35°27' E 139°40'0 0.0
2017-Sep-17 14:30N 35°27' E 139°40'0 0.0
2017-Sep-17 14:01N 35°27' E 139°40'0 0.5
2017-Sep-17 13:31N 35°27' E 139°40'610.9
2017-Sep-17 13:00N 35°21' E 139°42'714.8
2017-Sep-17 12:30N 35°15' E 139°45'1 2.8
2017-Sep-17 12:00N 35°16' E 139°46'612.9
2017-Sep-17 11:30N 35°22' E 139°42'3 6.4
2017-Sep-17 11:00N 35°24' E 139°45'2 4.2
2017-Sep-17 10:30N 35°23' E 139°43'611.3
2017-Sep-17 10:01N 35°18' E 139°39'0 0.1
2017-Sep-17 05:36N 35°19' E 139°38'0 0.0
2017-Sep-17 05:19N 35°19' E 139°38'0 0.0
2017-Sep-17 04:54N 35°19' E 139°38'0 0.0
2017-Sep-17 04:27N 35°19' E 139°38'0 0.0
2017-Sep-17 04:00N 35°19' E 139°38'0 0.0
2017-Sep-17 03:31N 35°19' E 139°38'0 0.0
2017-Sep-17 02:59N 35°19' E 139°38'0 0.0
2017-Sep-17 02:29N 35°19' E 139°38'0 0.0
2017-Sep-17 02:00N 35°19' E 139°38'0 0.0
2017-Sep-17 01:26N 35°19' E 139°38'0 0.0
2017-Sep-17 01:00N 35°19' E 139°38'0 0.0
2017-Sep-16 23:35N 35°19' E 139°38'0 0.0
2017-Sep-16 23:28N 35°19' E 139°38'2 5.2
2017-Sep-16 23:00N 35°19' E 139°41'713.0
2017-Sep-16 22:30N 35°13' E 139°46'4 8.0
2017-Sep-16 22:00N 35°17' E 139°45'613.0
2017-Sep-16 21:30N 35°23' E 139°41'1 2.0
2017-Sep-16 21:01N 35°24' E 139°40'0 0.3
2017-Sep-16 20:31N 35°24' E 139°40'4 8.5
2017-Sep-16 20:00N 35°19' E 139°41'2 1.6
2017-Sep-16 18:38N 35°19' E 139°38'0 0.0
2017-Sep-16 16:55N 35°19' E 139°38'0 0.0
2017-Sep-16 16:27N 35°19' E 139°38'0 0.0
2017-Sep-16 15:59N 35°19' E 139°38'0 0.0
2017-Sep-16 15:28N 35°19' E 139°38'0 0.0
2017-Sep-16 12:33N 35°19' E 139°38'0 0.0
2017-Sep-16 12:13N 35°19' E 139°38'0 0.0
2017-Sep-16 11:59N 35°19' E 139°38'0 0.0
2017-Sep-16 11:14N 35°19' E 139°38'0 0.0
2017-Sep-16 10:58N 35°19' E 139°38'3 7.4
2017-Sep-16 10:30N 35°18' E 139°42'611.8
2017-Sep-16 10:00N 35°13' E 139°46'612.3
2017-Sep-16 09:30N 35°18' E 139°44'612.6
2017-Sep-16 09:01N 35°25' E 139°43'2 3.5
2017-Sep-16 08:31N 35°25' E 139°45'4 8.6
2017-Sep-16 08:01N 35°27' E 139°41'1 2.3
2017-Sep-16 07:30N 35°27' E 139°40'0 0.0
2017-Sep-16 07:00N 35°27' E 139°40'0 0.0
2017-Sep-16 06:30N 35°27' E 139°40'0 0.0
2017-Sep-16 06:00N 35°27' E 139°40'0 0.0
2017-Sep-16 05:31N 35°27' E 139°40'0 0.0
2017-Sep-16 05:00N 35°27' E 139°40'0 0.0
2017-Sep-14 03:47N 35°27' E 139°40'2 6.6
2017-Sep-14 03:30N 35°26' E 139°42'714.1
2017-Sep-14 03:00N 35°19' E 139°43'714.6
2017-Sep-14 02:30N 35°12' E 139°46'510.3
2017-Sep-14 02:00N 35°17' E 139°45'611.9
2017-Sep-14 01:31N 35°23' E 139°42'5 9.2
2017-Sep-14 01:00N 35°27' E 139°44'0 0.6
2017-Sep-14 00:31N 35°28' E 139°43'2 4.1
2017-Sep-14 00:00N 35°27' E 139°41'1 2.5
2017-Sep-13 23:31N 35°27' E 139°40'0 0.0
2017-Sep-13 23:01N 35°27' E 139°40'  
2017-Sep-11 00:11N 35°27' E 139°40'0 0.0
2017-Sep-11 00:00N 35°27' E 139°40'3 5.4
2017-Sep-10 23:31N 35°25' E 139°42'714.8
2017-Sep-10 23:00N 35°17' E 139°44'4 8.5
2017-Sep-10 22:30N 35°14' E 139°46'611.6
2017-Sep-10 22:00N 35°19' E 139°43'612.0
2017-Sep-10 21:31N 35°25' E 139°43'2 3.0
2017-Sep-10 21:00N 35°25' E 139°45'4 7.2
2017-Sep-10 20:30N 35°27' E 139°42'2 3.3
2017-Sep-10 20:00N 35°27' E 139°40'0 0.0
2017-Sep-10 19:30N 35°27' E 139°40'0 0.0
2017-Sep-09 02:39N 35°27' E 139°40'0 1.6
2017-Sep-09 02:31N 35°27' E 139°40'510.5
2017-Sep-09 02:00N 35°22' E 139°41'714.4
2017-Sep-09 01:30N 35°15' E 139°45'1 2.3
2017-Sep-09 01:00N 35°14' E 139°46'4 7.8
2017-Sep-09 00:30N 35°18' E 139°44'3 6.5
2017-Sep-09 00:00N 35°20' E 139°42'3 6.7
2017-Sep-08 23:31N 35°24' E 139°42'4 7.1
2017-Sep-08 23:00N 35°27' E 139°40'  

Dump ship's entire track history